Terminal Aerodrome Forecast
Issued by NWS

Home | Current Version | Previous Version | Text Only | Print | Product List | Glossary On
Versions: 1 2 3 4 5 6 7 8 9 10 11 12 13 14 15 16 17 18
000
FTUS46 KSEW 160524
TAFHQM
TAF
KHQM 160524Z 1606/1706 28006KT P6SM FEW025 BKN040
     FM161700 22004KT P6SM BKN020 OVC035
     FM162200 20006KT P6SM -RA OVC015=

USA.gov is the U.S. government's official web portal to all federal, state and local government web resources and services.